Time;durP1;ratioP1;P1;durP2;ratioP2;P2;SDS_P1;SDS_P2;PMS_P1;PMS_P2;Temp;Humidity;BMP_temperature;BMP_pressure;BME280_temperature;BME280_humidity;BME280_pressure;Samples;Min_cycle;Max_cycle;Signal;HPM_P1;HPM_P2
2022/06/03 00:00:21;;;;;;;0.98;0.80;;;;;;;19.43;49.66;97309.91;10167339;29;20501;-83
2022/06/03 00:05:55;;;;;;;1.20;1.00;;;;;;;19.42;49.75;97305.59;10172848;29;20056;-82
2022/06/03 00:11:21;;;;;;;1.65;0.95;;;;;;;19.43;49.72;97307.97;10175853;29;20052;-83
2022/06/03 00:16:52;;;;;;;1.42;1.00;;;;;;;19.44;49.66;97300.66;10171427;29;20102;-82
2022/06/03 00:22:28;;;;;;;1.33;0.88;;;;;;;19.42;49.76;97300.19;10185856;29;20060;-82
2022/06/03 00:27:50;;;;;;;1.55;0.80;;;;;;;19.42;49.82;97302.88;10189748;29;20452;-83
2022/06/03 00:33:29;;;;;;;0.98;0.88;;;;;;;19.42;49.81;97295.56;10176656;29;20040;-82
2022/06/03 00:38:59;;;;;;;1.08;0.90;;;;;;;19.42;49.72;97289.38;10170254;29;20055;-83
2022/06/03 00:44:25;;;;;;;0.82;0.80;;;;;;;19.41;49.75;97291.28;10187460;29;20052;-82
2022/06/03 00:49:54;;;;;;;1.23;0.90;;;;;;;19.41;49.91;97285.88;10170150;29;20056;-83
2022/06/03 00:55:37;;;;;;;1.77;0.93;;;;;;;19.40;49.90;97286.97;10176366;29;20397;-82
2022/06/03 01:01:03;;;;;;;1.92;0.95;;;;;;;19.41;49.91;97290.50;10177851;29;20056;-83
2022/06/03 01:06:23;;;;;;;0.73;0.70;;;;;;;19.40;49.80;97281.56;10183305;29;20056;-82
2022/06/03 01:11:45;;;;;;;1.30;0.93;;;;;;;19.40;49.95;97276.16;10171339;29;20048;-82
2022/06/03 01:17:24;;;;;;;0.95;0.80;;;;;;;19.41;49.94;97285.09;10180569;29;20064;-83
2022/06/03 01:23:11;;;;;;;0.95;0.85;;;;;;;19.39;49.98;97282.69;10182077;29;20063;-83
2022/06/03 01:28:46;;;;;;;0.98;0.85;;;;;;;19.39;49.96;97280.00;10168388;29;20415;-83
2022/06/03 01:34:30;;;;;;;0.70;0.70;;;;;;;19.39;49.90;97277.28;10192987;29;20052;-83
2022/06/03 01:40:17;;;;;;;0.80;0.80;;;;;;;19.40;50.03;97264.56;10194237;29;20048;-83
2022/06/03 01:46:12;;;;;;;0.68;0.68;;;;;;;19.39;49.97;97266.50;10181490;29;20543;-83
2022/06/03 01:51:47;;;;;;;0.90;0.70;;;;;;;19.37;49.98;97255.19;10197089;29;20048;-83
2022/06/03 01:57:22;;;;;;;0.88;0.82;;;;;;;19.38;50.04;97262.19;10182622;29;20427;-83
2022/06/03 02:02:53;;;;;;;1.02;0.80;;;;;;;19.36;50.01;97262.47;10185414;29;20056;-83
2022/06/03 02:08:25;;;;;;;1.42;0.75;;;;;;;19.36;50.09;97259.00;10193595;29;20080;-82
2022/06/03 02:13:57;;;;;;;;;;;;;;;19.37;50.15;97255.19;10175093;29;20111;-83
2022/06/03 02:19:38;;;;;;;0.75;0.70;;;;;;;19.36;50.04;97259.00;10183452;29;19923;-83
2022/06/03 02:25:07;;;;;;;0.80;0.80;;;;;;;19.35;49.97;97252.81;10184234;29;20051;-83
2022/06/03 02:30:58;;;;;;;0.60;0.60;;;;;;;19.35;50.00;97255.50;10188919;29;20058;-83
2022/06/03 02:36:59;;;;;;;0.90;0.68;;;;;;;19.36;50.12;97261.69;10173127;29;20562;-83
2022/06/03 02:42:45;;;;;;;0.80;0.80;;;;;;;19.34;50.12;97253.91;10169051;29;20132;-82
2022/06/03 02:48:25;;;;;;;0.75;0.75;;;;;;;19.34;50.10;97266.63;10173202;29;20051;-82
2022/06/03 02:54:10;;;;;;;1.80;0.82;;;;;;;19.34;50.01;97261.22;10177050;29;20464;-82
2022/06/03 02:59:41;;;;;;;1.10;0.80;;;;;;;19.33;50.06;97257.72;10177561;29;20107;-82
2022/06/03 03:05:08;;;;;;;0.77;0.75;;;;;;;19.34;50.07;97255.81;10176879;29;20385;-83
2022/06/03 03:11:04;;;;;;;0.70;0.63;;;;;;;19.34;50.18;97258.50;10183834;29;20045;-82
2022/06/03 03:17:13;;;;;;;1.08;0.70;;;;;;;19.33;50.21;97265.03;10172636;29;20052;-82
2022/06/03 03:23:05;;;;;;;0.82;0.70;;;;;;;19.33;50.17;97255.03;10144705;29;20052;-82
2022/06/03 03:28:34;;;;;;;0.90;0.80;;;;;;;19.32;50.22;97263.44;10161921;29;20120;-83
2022/06/03 03:34:21;;;;;;;0.70;0.70;;;;;;;19.32;50.21;97263.44;10176407;29;20492;-82
2022/06/03 03:40:01;;;;;;;0.70;0.70;;;;;;;19.32;50.19;97274.22;10174294;29;20468;-82
2022/06/03 03:45:36;;;;;;;1.20;0.88;;;;;;;19.32;50.22;97276.94;10176049;29;20052;-82
2022/06/03 03:51:33;;;;;;;0.70;0.70;;;;;;;19.31;50.12;97268.03;10172422;29;20052;-82
2022/06/03 03:57:18;;;;;;;1.13;0.63;;;;;;;19.31;50.27;97278.06;10187773;29;20056;-83
2022/06/03 04:02:46;;;;;;;0.88;0.70;;;;;;;19.32;50.32;97279.63;10187485;29;20056;-82
2022/06/03 04:08:09;;;;;;;0.90;0.70;;;;;;;19.33;50.26;97289.34;10194684;29;20056;-82
2022/06/03 04:14:16;;;;;;;0.93;0.82;;;;;;;19.34;50.38;97286.31;10188175;29;20060;-81
2022/06/03 04:19:51;;;;;;;0.70;0.70;;;;;;;19.35;50.90;97290.63;10160599;29;20135;-81
2022/06/03 04:25:30;;;;;;;1.10;0.90;;;;;;;19.35;51.05;97300.66;10165428;29;20184;-81
2022/06/03 04:31:12;;;;;;;1.65;0.70;;;;;;;19.34;51.27;97299.81;10162298;29;20053;-82
2022/06/03 04:37:02;;;;;;;1.08;0.70;;;;;;;19.35;51.22;97300.66;10190892;29;20058;-81
2022/06/03 04:42:50;;;;;;;0.80;0.65;;;;;;;19.35;51.37;97300.66;10193154;29;20055;-81
2022/06/03 04:48:32;;;;;;;1.25;0.98;;;;;;;19.35;51.65;97296.03;10191896;29;20074;-81
2022/06/03 04:54:40;;;;;;;0.80;0.60;;;;;;;19.36;51.85;97297.59;10171099;29;20059;-87
2022/06/03 05:00:05;;;;;;;2.33;0.90;;;;;;;19.37;51.64;97290.31;10110265;29;20671;-86
2022/06/03 05:05:25;;;;;;;2.22;0.90;;;;;;;19.33;50.66;97290.13;10152965;29;20047;-86
2022/06/03 05:10:47;;;;;;;1.15;0.90;;;;;;;19.32;51.01;97296.63;10167544;29;20460;-83
2022/06/03 05:16:06;;;;;;;4.85;1.70;;;;;;;19.33;51.31;97298.25;10156330;29;20071;-84
2022/06/03 05:21:47;;;;;;;10.52;2.92;;;;;;;19.32;51.24;97304.75;10173543;29;20059;-83
2022/06/03 05:27:38;;;;;;;16.98;4.03;;;;;;;19.30;51.21;97308.88;10173260;29;20500;-83
2022/06/03 05:33:19;;;;;;;14.07;4.20;;;;;;;19.30;51.27;97314.28;10157064;29;20148;-83
2022/06/03 05:38:48;;;;;;;14.98;3.90;;;;;;;19.29;51.19;97301.88;10181527;29;20297;-82
2022/06/03 05:44:32;;;;;;;10.50;3.72;;;;;;;19.28;51.02;97313.78;10172883;29;20127;-82
2022/06/03 05:50:03;;;;;;;9.02;3.20;;;;;;;19.28;50.95;97300.28;10180559;29;20432;-83
2022/06/03 05:55:30;;;;;;;6.85;2.90;;;;;;;19.28;50.91;97305.69;10176406;29;20048;-83
2022/06/03 06:01:19;;;;;;;5.90;2.75;;;;;;;19.28;50.84;97305.69;10190137;29;20052;-83
2022/06/03 06:07:11;;;;;;;5.10;2.42;;;;;;;19.28;50.78;97295.66;10164419;29;20060;-83
2022/06/03 06:12:47;;;;;;;5.78;2.50;;;;;;;19.27;50.61;97296.00;10191393;29;20048;-83
2022/06/03 06:18:25;;;;;;;4.13;2.15;;;;;;;19.28;50.59;97284.84;10165431;29;20055;-82
2022/06/03 06:23:48;;;;;;;3.63;2.05;;;;;;;19.28;50.58;97289.47;10174759;29;20063;-83
2022/06/03 06:29:29;;;;;;;6.15;2.25;;;;;;;19.28;50.42;97284.84;10163921;29;20051;-83
2022/06/03 06:35:26;;;;;;;3.63;2.13;;;;;;;19.27;50.30;97277.09;10191090;29;20052;-82
2022/06/03 06:40:58;;;;;;;3.78;2.00;;;;;;;19.28;50.28;97281.38;10194009;29;20112;-83
2022/06/03 06:46:39;;;;;;;3.33;1.90;;;;;;;19.28;50.13;97284.84;10177913;29;20056;-83
2022/06/03 06:52:08;;;;;;;3.55;1.90;;;;;;;19.27;50.15;97272.47;10188064;29;20058;-83
2022/06/03 06:57:42;;;;;;;3.33;2.00;;;;;;;19.27;50.22;97269.78;10190177;29;20048;-83
2022/06/03 07:03:10;;;;;;;2.67;1.88;;;;;;;19.28;50.22;97270.56;10189748;29;20163;-82
2022/06/03 07:08:46;;;;;;;2.80;1.95;;;;;;;19.29;50.14;97264.06;10166174;29;20055;-82
2022/06/03 07:14:12;;;;;;;2.55;1.67;;;;;;;19.28;50.04;97246.25;10155563;29;20056;-82
2022/06/03 07:19:59;;;;;;;2.60;1.77;;;;;;;19.28;50.15;97247.03;10185990;29;20048;-82
2022/06/03 07:25:44;;;;;;;3.10;1.70;;;;;;;19.27;50.02;97247.38;10178250;29;20099;-82
2022/06/03 07:31:09;;;;;;;3.17;1.40;;;;;;;19.28;50.05;97244.34;10179304;29;20058;-82
2022/06/03 07:36:30;;;;;;;2.05;1.60;;;;;;;19.28;50.10;97238.16;10191006;29;20047;-81
2022/06/03 07:42:15;;;;;;;2.00;1.58;;;;;;;19.28;50.06;97243.56;10189834;29;20504;-82
2022/06/03 07:47:34;;;;;;;1.95;1.45;;;;;;;19.29;49.98;97245.16;10188427;29;20048;-82
2022/06/03 07:52:59;;;;;;;1.77;1.58;;;;;;;19.29;50.09;97243.25;10190396;29;20051;-82
2022/06/03 07:58:22;;;;;;;1.83;1.50;;;;;;;19.30;49.96;97244.81;10175961;29;20081;-82
2022/06/03 08:03:41;;;;;;;2.17;1.75;;;;;;;19.28;49.92;97235.44;10161266;29;20047;-82
2022/06/03 08:14:50;;;;;;;2.03;1.70;;;;;;;19.29;49.86;97228.94;10170360;29;20051;-82
2022/06/03 08:20:10;;;;;;;1.95;1.77;;;;;;;19.28;49.74;97228.13;10202223;29;20082;-82
2022/06/03 08:25:35;;;;;;;2.83;1.90;;;;;;;19.28;49.86;97214.63;10164669;29;20122;-82
2022/06/03 08:30:55;;;;;;;1.98;1.52;;;;;;;19.29;49.72;97218.94;10189945;29;20056;-82
2022/06/03 08:36:20;;;;;;;1.70;1.60;;;;;;;19.29;49.68;97213.53;10182288;29;20052;-82
2022/06/03 08:42:01;;;;;;;1.70;1.60;;;;;;;19.29;49.77;97220.84;10176336;29;20048;-82
2022/06/03 08:47:37;;;;;;;4.00;1.83;;;;;;;19.29;49.83;97216.22;10183468;29;20048;-82
2022/06/03 08:53:07;;;;;;;2.05;1.80;;;;;;;19.30;49.83;97211.63;10178438;29;20049;-83
2022/06/03 08:58:27;;;;;;;2.10;2.00;;;;;;;19.30;49.88;97211.63;10180902;29;20516;-82
2022/06/03 09:03:49;;;;;;;2.75;1.80;;;;;;;19.30;49.89;97203.50;10184358;29;20062;-82
2022/06/03 09:09:47;;;;;;;2.08;1.80;;;;;;;19.31;49.78;97207.81;10210842;29;20056;-82
2022/06/03 09:15:11;;;;;;;1.60;1.50;;;;;;;19.30;49.82;97203.50;10107813;29;20431;-82
2022/06/03 09:20:33;;;;;;;1.88;1.77;;;;;;;19.32;50.00;97214.81;10200251;29;20048;-83
2022/06/03 09:25:56;;;;;;;2.63;1.70;;;;;;;19.30;49.97;97207.00;10191023;29;20052;-83
2022/06/03 09:31:17;;;;;;;2.22;1.95;;;;;;;19.31;49.79;97211.31;10188553;29;20055;-83
2022/06/03 09:36:36;;;;;;;2.17;1.80;;;;;;;19.31;49.95;97194.31;10202916;29;20056;-83
2022/06/03 09:41:57;;;;;;;1.80;1.70;;;;;;;19.33;49.74;97186.69;10201561;29;20528;-82
2022/06/03 09:47:18;;;;;;;1.70;1.60;;;;;;;19.31;49.88;97180.81;10189078;29;20554;-83
2022/06/03 09:52:38;;;;;;;1.65;1.55;;;;;;;19.30;50.01;97163.78;10186798;29;20056;-82
2022/06/03 09:57:59;;;;;;;1.67;1.58;;;;;;;19.32;49.97;97166.19;10182741;29;20048;-82
2022/06/03 10:03:20;;;;;;;1.92;1.58;;;;;;;19.32;50.07;97166.19;10204493;29;20052;-82
2022/06/03 10:14:18;;;;;;;1.70;1.60;;;;;;;19.32;50.02;97155.38;10198526;29;20060;-82
2022/06/03 10:19:37;;;;;;;1.75;1.65;;;;;;;19.32;49.99;97149.97;10198395;29;20300;-82
2022/06/03 10:24:57;;;;;;;1.77;1.67;;;;;;;19.32;50.13;97145.34;10176393;29;20120;-82
2022/06/03 10:30:26;;;;;;;1.80;1.70;;;;;;;19.33;50.00;97138.06;10176859;29;20048;-82
2022/06/03 10:35:47;;;;;;;1.67;1.57;;;;;;;19.32;50.15;97136.47;10183803;29;20063;-82
2022/06/03 10:41:09;;;;;;;1.85;1.75;;;;;;;19.33;50.01;97121.84;10181753;29;20684;-82
2022/06/03 10:46:29;;;;;;;1.60;1.50;;;;;;;19.33;50.02;97119.16;10197642;29;20416;-82
2022/06/03 11:03:21;;;;;;;11.60;4.95;;;;;;;19.38;50.90;97104.69;10167173;29;20056;-82
2022/06/03 11:08:59;;;;;;;11.82;4.60;;;;;;;19.42;51.28;97095.63;10170543;29;20048;-82
2022/06/03 11:14:22;;;;;;;6.40;3.47;;;;;;;19.46;51.18;97082.28;10183426;29;20568;-82
2022/06/03 11:19:49;;;;;;;4.28;2.95;;;;;;;19.46;51.02;97079.59;10196382;29;20055;-82
2022/06/03 11:25:22;;;;;;;4.70;2.90;;;;;;;19.47;50.95;97073.09;10195084;29;20048;-82
2022/06/03 11:30:51;;;;;;;4.35;2.92;;;;;;;19.46;50.78;97071.47;10192996;29;20048;-82
2022/06/03 11:36:21;;;;;;;4.25;2.58;;;;;;;19.47;50.77;97071.19;10202089;29;20131;-82
2022/06/03 11:41:49;;;;;;;3.53;2.58;;;;;;;19.47;50.68;97040.66;10199404;29;20605;-82
2022/06/03 11:47:15;;;;;;;2.90;2.60;;;;;;;19.50;50.58;97030.03;10155973;29;20058;-82
2022/06/03 11:52:35;;;;;;;3.58;2.42;;;;;;;19.50;50.41;97031.91;10195937;29;20048;-83
2022/06/03 11:58:01;;;;;;;3.17;2.40;;;;;;;19.51;50.57;97020.00;10183101;29;20059;-82
2022/06/03 12:03:28;;;;;;;2.37;2.17;;;;;;;19.50;50.60;97018.41;10193129;29;20482;-82
2022/06/03 12:08:51;;;;;;;2.95;2.40;;;;;;;19.46;50.59;97007.44;10180459;29;20508;-82
2022/06/03 12:14:27;;;;;;;3.83;1.85;;;;;;;19.46;50.71;96993.13;10180835;29;20056;-82
2022/06/03 12:19:50;;;;;;;2.55;1.67;;;;;;;19.47;50.74;96992.03;10197175;29;20044;-82
2022/06/03 12:25:31;;;;;;;1.90;1.80;;;;;;;19.47;50.64;96992.81;10180927;29;20416;-82
2022/06/03 12:30:57;;;;;;;4.07;1.70;;;;;;;19.47;50.84;96989.34;10182600;29;20058;-82
2022/06/03 12:36:46;;;;;;;2.85;1.83;;;;;;;19.46;50.58;96983.13;10177979;29;20070;-82
2022/06/03 12:42:11;;;;;;;2.10;1.90;;;;;;;19.45;50.56;96976.13;10185098;29;20064;-82
2022/06/03 12:47:34;;;;;;;2.08;1.80;;;;;;;19.45;50.57;96976.13;10177814;29;20044;-82
2022/06/03 12:52:59;;;;;;;1.70;1.60;;;;;;;19.46;50.43;96976.91;10187121;29;20145;-82
2022/06/03 12:58:39;;;;;;;2.35;1.70;;;;;;;19.47;50.38;96973.13;10191751;29;20056;-82
2022/06/03 13:04:25;;;;;;;4.07;1.90;;;;;;;19.46;50.37;96966.13;10203161;29;20756;-82
2022/06/03 13:09:57;;;;;;;3.20;2.00;;;;;;;19.47;50.43;96967.72;10177240;29;20048;-82
2022/06/03 13:15:16;;;;;;;2.25;1.90;;;;;;;19.48;50.35;96964.69;10200124;29;20064;-82
2022/06/03 13:20:38;;;;;;;1.70;1.60;;;;;;;19.49;50.54;96968.19;10163483;29;20063;-82
2022/06/03 13:26:25;;;;;;;2.55;1.75;;;;;;;19.49;50.59;96960.88;10179950;29;20052;-82
2022/06/03 13:31:50;;;;;;;2.17;1.55;;;;;;;19.49;50.69;96960.88;10176564;29;20056;-82
2022/06/03 13:37:28;;;;;;;1.73;1.60;;;;;;;19.50;50.53;96967.06;10181429;29;20040;-82
2022/06/03 13:42:59;;;;;;;1.50;1.40;;;;;;;19.49;50.57;96962.78;10178173;29;20062;-82
2022/06/03 13:48:33;;;;;;;1.83;1.50;;;;;;;19.51;50.64;96961.34;10178148;29;20400;-82
2022/06/03 13:53:56;;;;;;;2.20;2.00;;;;;;;19.52;50.56;96956.72;10196589;29;20409;-82
2022/06/03 13:59:16;;;;;;;2.40;1.48;;;;;;;19.53;50.49;96961.03;10178420;29;20048;-82
2022/06/03 14:04:47;;;;;;;1.73;1.45;;;;;;;19.53;50.43;96969.13;10173011;29;20514;-83
2022/06/03 14:10:22;;;;;;;2.00;1.40;;;;;;;19.55;50.49;96959.59;10190903;29;20138;-83
2022/06/03 14:16:03;;;;;;;2.15;1.55;;;;;;;19.68;50.15;96967.81;10147758;29;20066;-84
2022/06/03 14:21:37;;;;;;;2.97;1.70;;;;;;;19.79;49.56;96931.28;10177754;29;20060;-84
2022/06/03 14:27:13;;;;;;;2.03;1.60;;;;;;;19.91;49.22;96914.38;10188874;29;20060;-82
2022/06/03 14:32:35;;;;;;;1.70;1.40;;;;;;;19.93;49.06;96910.25;10183542;29;20052;-83
2022/06/03 14:38:01;;;;;;;1.83;1.70;;;;;;;19.93;48.81;96895.91;10189952;29;20056;-83
2022/06/03 14:43:24;;;;;;;1.60;1.50;;;;;;;19.97;48.90;96871.72;10175923;29;20053;-82
2022/06/03 14:48:53;;;;;;;7.28;1.70;;;;;;;19.99;49.51;96883.81;10172095;29;20139;-83
2022/06/03 14:54:16;;;;;;;1.92;1.73;;;;;;;20.06;49.07;96865.16;10178068;29;20048;-84
2022/06/03 14:59:39;;;;;;;1.60;1.50;;;;;;;20.11;48.96;96861.47;10168157;29;20448;-83
2022/06/03 15:05:22;;;;;;;3.38;1.75;;;;;;;20.14;48.87;96855.44;10166021;29;20822;-83
2022/06/03 15:11:08;;;;;;;1.63;1.52;;;;;;;20.14;48.85;96856.22;10177468;29;20056;-83
2022/06/03 15:16:27;;;;;;;1.75;1.60;;;;;;;20.18;48.68;96855.56;10165947;29;20420;-83
2022/06/03 15:21:47;;;;;;;2.15;1.75;;;;;;;20.18;48.80;96850.94;10154075;29;20067;-84
2022/06/03 15:27:06;;;;;;;1.85;1.67;;;;;;;20.15;49.10;96835.38;10178620;29;20508;-83
2022/06/03 15:32:26;;;;;;;2.35;1.67;;;;;;;20.18;48.79;96829.31;10156515;29;20051;-83
2022/06/03 15:37:45;;;;;;;2.65;2.10;;;;;;;20.21;48.93;96817.03;10170668;29;20048;-84
2022/06/03 15:43:14;;;;;;;3.03;1.80;;;;;;;20.23;49.14;96814.78;10164442;29;20055;-84
2022/06/03 15:48:34;;;;;;;2.00;1.80;;;;;;;20.22;49.12;96814.00;10170693;29;20064;-83
2022/06/03 15:53:59;;;;;;;1.60;1.50;;;;;;;20.08;49.50;96822.38;10183587;29;20059;-83
2022/06/03 15:59:28;;;;;;;1.95;1.70;;;;;;;19.98;49.80;96805.72;10187185;29;20155;-84
2022/06/03 16:05:12;;;;;;;1.80;1.70;;;;;;;19.90;49.92;96808.16;10170652;29;20114;-83
2022/06/03 16:10:33;;;;;;;1.70;1.60;;;;;;;19.87;50.13;96797.19;10174318;29;20059;-83
2022/06/03 16:16:01;;;;;;;1.50;1.40;;;;;;;19.84;50.21;96793.25;10159021;29;20055;-83
2022/06/03 16:21:58;;;;;;;2.63;1.63;;;;;;;19.83;50.37;96797.03;10160105;29;20511;-83
2022/06/03 16:27:24;;;;;;;1.85;1.73;;;;;;;19.85;50.33;96800.22;10147921;29;20471;-83
2022/06/03 16:32:55;;;;;;;1.90;1.60;;;;;;;19.85;50.46;96813.72;10176012;29;20416;-84
2022/06/03 16:38:22;;;;;;;1.63;1.52;;;;;;;19.90;50.66;96804.66;10154393;29;20492;-85
2022/06/03 16:43:50;;;;;;;1.95;1.60;;;;;;;19.90;50.88;96805.44;10169119;29;20493;-84
2022/06/03 16:49:13;;;;;;;2.20;1.90;;;;;;;19.94;50.96;96792.84;10177486;29;20064;-84
2022/06/03 16:54:37;;;;;;;3.25;2.42;;;;;;;19.97;51.06;96786.00;10168387;29;20056;-84
2022/06/03 17:00:14;;;;;;;3.83;3.42;;;;;;;20.00;51.57;96790.75;10169392;29;20049;-84
2022/06/03 17:05:44;;;;;;;4.57;3.42;;;;;;;20.02;52.12;96798.56;10178211;29;20049;-84
2022/06/03 17:11:07;;;;;;;3.90;3.47;;;;;;;20.02;52.42;96793.16;10129197;29;20072;-83
2022/06/03 17:16:33;;;;;;;4.15;3.65;;;;;;;20.03;52.78;96789.31;10158005;29;20056;-84
2022/06/03 17:22:18;;;;;;;4.18;3.50;;;;;;;20.08;53.53;96786.41;10171760;29;20051;-84
2022/06/03 17:27:40;;;;;;;5.05;4.03;;;;;;;20.06;53.48;96780.56;10175483;29;20056;-83
2022/06/03 17:33:06;;;;;;;5.85;3.83;;;;;;;20.01;53.61;96789.63;10168921;29;20519;-83
2022/06/03 17:38:51;;;;;;;4.90;4.28;;;;;;;20.00;53.85;96806.97;10171929;29;20048;-83
2022/06/03 17:44:33;;;;;;;4.38;4.00;;;;;;;19.98;53.76;96808.44;10173345;29;20507;-83
2022/06/03 17:50:17;;;;;;;5.75;4.00;;;;;;;19.97;53.69;96807.63;10194362;29;20492;-84
2022/06/03 17:56:07;;;;;;;3.90;3.60;;;;;;;19.97;53.73;96804.91;10166544;29;20052;-84
2022/06/03 18:01:45;;;;;;;4.38;3.63;;;;;;;19.96;53.51;96789.84;10158301;29;20440;-84
2022/06/03 18:07:10;;;;;;;4.13;3.72;;;;;;;19.95;53.32;96789.03;10169271;29;20052;-83
2022/06/03 18:12:32;;;;;;;3.70;3.50;;;;;;;19.96;53.38;96789.84;10184910;29;20048;-84
2022/06/03 18:17:57;;;;;;;4.10;3.80;;;;;;;19.95;53.28;96797.16;10162735;29;20059;-83
2022/06/03 18:23:25;;;;;;;4.53;4.13;;;;;;;19.94;53.20;96800.97;10186570;29;20059;-84
2022/06/03 18:28:59;;;;;;;3.80;3.50;;;;;;;19.94;53.16;96787.44;10199612;29;20048;-83
2022/06/03 18:34:31;;;;;;;4.30;3.58;;;;;;;19.95;53.06;96793.63;10180399;29;20106;-83
2022/06/03 18:40:05;;;;;;;3.90;3.60;;;;;;;19.95;52.97;96802.56;10187256;29;20051;-83
2022/06/03 18:45:31;;;;;;;4.07;3.78;;;;;;;19.97;53.04;96794.09;10168493;29;20060;-82
2022/06/03 18:51:32;;;;;;;4.97;3.97;;;;;;;19.95;52.88;96778.22;10185615;29;20455;-82
2022/06/03 18:57:03;;;;;;;4.18;3.78;;;;;;;19.94;52.76;96771.22;10135784;29;20055;-82
2022/06/03 19:02:54;;;;;;;4.45;4.05;;;;;;;19.94;52.91;96770.44;10140088;29;20389;-83
2022/06/03 19:08:31;;;;;;;4.22;3.92;;;;;;;19.92;52.95;96781.56;10173553;29;20052;-83
2022/06/03 19:14:06;;;;;;;4.22;3.92;;;;;;;19.92;52.91;96780.78;10179649;29;20056;-83
2022/06/03 19:19:25;;;;;;;4.75;4.35;;;;;;;19.92;52.95;96786.19;10190422;29;20111;-83
2022/06/03 19:24:57;;;;;;;4.95;4.55;;;;;;;19.91;53.02;96773.78;10185912;29;20059;-83
2022/06/03 19:30:17;;;;;;;4.93;4.43;;;;;;;19.91;52.94;96771.09;10193436;29;20048;-83
2022/06/03 19:36:18;;;;;;;4.65;4.25;;;;;;;19.91;53.06;96773.78;10190143;29;20056;-83
2022/06/03 19:42:15;;;;;;;5.38;4.88;;;;;;;19.89;53.03;96782.22;10176985;29;20067;-83
2022/06/03 19:47:35;;;;;;;4.75;4.20;;;;;;;19.89;53.01;96778.72;10169091;29;20052;-83
2022/06/03 19:53:00;;;;;;;4.97;4.57;;;;;;;19.88;53.07;96777.16;10173405;29;20044;-83
2022/06/03 19:58:52;;;;;;;5.28;4.88;;;;;;;19.87;53.14;96776.34;10172847;29;20059;-83
2022/06/03 20:04:22;;;;;;;4.80;4.40;;;;;;;19.87;53.09;96781.75;10164884;29;20064;-83
2022/06/03 20:09:45;;;;;;;5.28;4.88;;;;;;;19.87;53.09;96789.88;10184893;29;20488;-83
2022/06/03 20:15:06;;;;;;;5.43;5.03;;;;;;;19.87;53.20;96806.09;10183323;29;20067;-83
2022/06/03 20:20:55;;;;;;;5.30;4.82;;;;;;;19.87;53.17;96808.00;10184569;29;20048;-83
2022/06/03 20:26:18;;;;;;;;;;;;;;;19.87;53.38;96806.09;10184684;29;20048;-83
2022/06/03 20:31:48;;;;;;;5.32;4.93;;;;;;;19.86;53.24;96799.09;10160066;29;19954;-82
2022/06/03 20:37:24;;;;;;;10.65;5.60;;;;;;;19.85;53.29;96794.81;10169363;29;20056;-82
2022/06/03 20:42:44;;;;;;;5.80;5.30;;;;;;;19.85;53.27;96802.91;10194338;29;20056;-82
2022/06/03 20:48:12;;;;;;;5.63;5.13;;;;;;;19.85;53.25;96799.44;10186518;29;20056;-82
2022/06/03 20:53:47;;;;;;;5.72;5.22;;;;;;;19.83;53.25;96794.34;10172368;29;20060;-83
2022/06/03 20:59:28;;;;;;;5.75;5.25;;;;;;;19.83;53.26;96791.63;10181997;29;20056;-83
2022/06/03 21:16:17;;;;;;;5.57;5.07;;;;;;;19.83;53.36;96775.41;10174381;29;20056;-82
2022/06/03 21:21:56;;;;;;;6.10;5.50;;;;;;;19.83;53.20;96786.22;10169333;29;20112;-82
2022/06/03 21:27:16;;;;;;;5.72;5.22;;;;;;;19.83;53.29;96780.03;10180881;29;20468;-83
2022/06/03 21:33:18;;;;;;;5.85;5.25;;;;;;;19.83;53.39;96778.13;10182885;29;20523;-83
2022/06/03 21:38:44;;;;;;;6.25;5.65;;;;;;;19.83;53.57;96775.41;10114561;29;20067;-83
2022/06/03 21:44:30;;;;;;;5.95;5.40;;;;;;;19.85;53.75;96796.72;10164567;29;20053;-83
2022/06/03 21:49:49;;;;;;;6.10;5.43;;;;;;;19.85;53.75;96785.91;10196775;29;20430;-84
2022/06/03 21:55:08;;;;;;;5.85;5.35;;;;;;;19.84;53.88;96787.81;10174254;29;20492;-84
2022/06/03 22:00:39;;;;;;;5.63;5.13;;;;;;;19.85;53.93;96827.25;10178291;29;20048;-84
2022/06/03 22:06:01;;;;;;;5.15;4.75;;;;;;;19.84;53.96;96825.69;10149072;29;20056;-84
2022/06/03 22:16:59;;;;;;;5.95;5.45;;;;;;;19.83;53.81;96877.34;10161691;29;20492;-83
2022/06/03 22:22:20;;;;;;;7.38;5.80;;;;;;;19.82;53.83;96914.41;10152467;29;20063;-83
2022/06/03 22:28:00;;;;;;;6.28;5.78;;;;;;;19.82;54.14;96951.47;10173679;29;20123;-83
2022/06/03 22:33:28;;;;;;;6.60;6.05;;;;;;;19.82;54.45;96949.56;10174277;29;20063;-83
2022/06/03 22:39:00;;;;;;;5.95;5.45;;;;;;;19.83;54.77;96958.47;10178593;29;20100;-83
2022/06/03 22:44:20;;;;;;;6.60;6.00;;;;;;;19.81;55.44;96972.28;10173172;29;20051;-83
2022/06/03 22:49:39;;;;;;;5.97;5.47;;;;;;;19.81;55.20;96969.59;10171747;29;20040;-84
2022/06/03 22:55:03;;;;;;;6.75;6.05;;;;;;;19.80;55.03;96959.09;10171881;29;20628;-84
2022/06/03 23:00:23;;;;;;;6.68;6.18;;;;;;;19.81;55.06;96947.19;10165639;29;20060;-83
2022/06/03 23:05:43;;;;;;;6.22;5.72;;;;;;;19.79;55.17;96928.56;10171185;29;20056;-83
2022/06/03 23:11:02;;;;;;;5.90;5.40;;;;;;;19.79;55.63;96925.09;10172676;29;20132;-83
2022/06/03 23:16:22;;;;;;;6.82;5.43;;;;;;;19.78;55.66;96935.09;10159172;29;20056;-83
2022/06/03 23:21:41;;;;;;;5.93;5.43;;;;;;;19.78;55.64;96902.66;10171248;29;20519;-83
2022/06/03 23:27:00;;;;;;;6.53;5.80;;;;;;;19.79;55.80;96887.22;10183575;29;20059;-83
2022/06/03 23:32:19;;;;;;;6.18;5.57;;;;;;;19.79;55.88;96895.34;10185622;29;20044;-83
2022/06/03 23:37:39;;;;;;;5.95;5.45;;;;;;;19.78;55.67;96899.97;10168815;29;20083;-83
2022/06/03 23:48:36;;;;;;;5.50;5.00;;;;;;;19.77;55.79;96874.03;10187171;29;20044;-82
2022/06/03 23:53:56;;;;;;;5.65;5.15;;;;;;;19.78;55.90;96869.41;10171934;29;20063;-83
2022/06/03 23:59:16;;;;;;;5.28;4.78;;;;;;;19.77;55.95;96852.41;10159057;29;20467;-83
